Time;durP1;ratioP1;P1;durP2;ratioP2;P2;SDS_P1;SDS_P2;PMS_P1;PMS_P2;Temp;Humidity;BMP_temperature;BMP_pressure;BME280_temperature;BME280_humidity;BME280_pressure;Samples;Min_cycle;Max_cycle;Signal;HPM_P1;HPM_P2
2023/05/01 00:00:13;;;;;;;;;;;10.00;99.90;;;;;;5176970;27;19958;-38
2023/05/01 00:02:38;;;;;;;;;;;10.00;99.90;;;;;;5177987;27;19915;-38
2023/05/01 00:05:04;;;;;;;;;;;9.90;99.90;;;;;;5177821;27;19911;-38
2023/05/01 00:07:30;;;;;;;;;;;9.90;99.90;;;;;;5176816;27;19915;-38
2023/05/01 00:09:58;;;;;;;;;;;9.80;99.90;;;;;;5177556;27;19913;-38
2023/05/01 00:12:24;;;;;;;;;;;9.80;99.90;;;;;;5177250;27;19907;-38
2023/05/01 00:14:50;;;;;;;;;;;9.70;99.90;;;;;;5176629;27;20392;-38
2023/05/01 00:17:15;;;;;;;;;;;9.70;99.90;;;;;;5177625;27;19914;-38
2023/05/01 00:19:41;;;;;;;;;;;9.70;99.90;;;;;;5177625;27;19915;-38
2023/05/01 00:22:07;;;;;;;;;;;9.60;99.90;;;;;;5176867;27;19907;-38
2023/05/01 00:24:32;;;;;;;;;;;9.60;99.90;;;;;;5177467;27;20349;-38
2023/05/01 00:26:58;;;;;;;;;;;9.50;99.90;;;;;;5176924;27;20408;-39
2023/05/01 00:29:23;;;;;;;;;;;9.50;99.90;;;;;;5176368;27;19907;-38
2023/05/01 00:31:49;;;;;;;;;;;9.50;99.90;;;;;;5177330;27;19941;-37
2023/05/01 00:34:14;;;;;;;;;;;9.50;99.90;;;;;;5177283;27;19914;-38
2023/05/01 00:36:40;;;;;;;;;;;9.40;99.90;;;;;;5176571;27;19954;-38
2023/05/01 00:39:08;;;;;;;;;;;9.40;99.90;;;;;;5177279;27;19911;-38
2023/05/01 00:41:34;;;;;;;;;;;9.40;99.90;;;;;;5177056;27;20042;-38
2023/05/01 00:44:00;;;;;;;;;;;9.40;99.90;;;;;;5175931;27;19993;-38
2023/05/01 00:46:26;;;;;;;;;;;9.40;99.90;;;;;;5176621;27;19919;-39
2023/05/01 00:48:52;;;;;;;;;;;9.40;99.90;;;;;;5176519;27;19907;-38
2023/05/01 00:51:18;;;;;;;;;;;9.40;99.90;;;;;;5176858;27;19907;-38
2023/05/01 00:53:44;;;;;;;;;;;9.40;99.90;;;;;;5176736;27;20280;-38
2023/05/01 00:56:10;;;;;;;;;;;9.30;99.90;;;;;;5176020;27;19907;-39
2023/05/01 00:58:36;;;;;;;;;;;9.30;99.90;;;;;;5176732;27;19958;-40
2023/05/01 01:01:03;;;;;;;;;;;9.30;99.90;;;;;;5176711;27;19907;-38
2023/05/01 01:03:30;;;;;;;;;;;9.30;99.90;;;;;;5175897;27;19907;-38
2023/05/01 01:05:58;;;;;;;;;;;9.30;99.90;;;;;;5176613;27;20172;-38
2023/05/01 01:08:38;;;;;;;;;;;9.30;99.90;;;;;;5176507;27;19929;-38
2023/05/01 01:11:12;;;;;;;;;;;9.20;99.90;;;;;;5175778;27;19914;-38
2023/05/01 01:13:54;;;;;;;;;;;9.20;99.90;;;;;;5176151;27;19911;-38
2023/05/01 01:16:22;;;;;;;;;;;9.20;99.90;;;;;;5176428;27;19967;-38
2023/05/01 01:18:51;;;;;;;;;;;9.10;99.90;;;;;;5175715;27;19934;-38
2023/05/01 01:21:27;;;;;;;;;;;9.10;99.90;;;;;;5176088;27;19922;-38
2023/05/01 01:24:11;;;;;;;;;;;9.10;99.90;;;;;;5176215;27;20281;-38
2023/05/01 01:26:54;;;;;;;;;;;9.10;99.90;;;;;;5176064;27;19973;-38
2023/05/01 01:29:25;;;;;;;;;;;9.00;99.90;;;;;;5175775;27;19907;-38
2023/05/01 01:32:01;;;;;;;;;;;9.10;99.90;;;;;;5174732;27;20419;-38
2023/05/01 01:34:32;;;;;;;;;;;9.00;99.90;;;;;;5175959;27;19906;-38
2023/05/01 01:37:07;;;;;;;;;;;9.00;99.90;;;;;;5176176;27;19913;-38
2023/05/01 01:39:44;;;;;;;;;;;9.00;99.90;;;;;;5174376;27;19910;-39
2023/05/01 01:42:20;;;;;;;;;;;9.00;99.90;;;;;;5175944;27;20374;-38
2023/05/01 01:44:58;;;;;;;;;;;9.00;99.90;;;;;;5175736;27;19911;-38
2023/05/01 01:47:30;;;;;;;;;;;9.00;99.90;;;;;;5175002;27;19911;-38
2023/05/01 01:49:56;;;;;;;;;;;8.90;99.90;;;;;;5175890;27;19913;-38
2023/05/01 01:52:23;;;;;;;;;;;8.80;99.90;;;;;;5174811;27;20274;-38
2023/05/01 01:54:57;;;;;;;;;;;8.80;99.90;;;;;;5175496;27;20381;-38
2023/05/01 01:57:23;;;;;;;;;;;8.80;99.90;;;;;;5174653;27;19936;-38
2023/05/01 01:59:50;;;;;;;;;;;8.70;99.90;;;;;;5174473;27;19914;-39
2023/05/01 02:02:17;;;;;;;;;;;8.70;99.90;;;;;;5174428;27;20001;-38
2023/05/01 02:04:43;;;;;;;;;;;8.70;99.90;;;;;;5174094;27;19910;-38
2023/05/01 02:07:10;;;;;;;;;;;8.70;99.90;;;;;;5174729;27;19922;-38
2023/05/01 02:09:36;;;;;;;;;;;8.70;99.90;;;;;;5175502;27;19907;-38
2023/05/01 02:12:04;;;;;;;;;;;8.60;99.90;;;;;;5175522;27;19941;-38
2023/05/01 02:14:30;;;;;;;;;;;8.60;99.90;;;;;;5174548;27;19914;-38
2023/05/01 02:16:57;;;;;;;;;;;8.50;99.90;;;;;;5175454;27;19934;-38
2023/05/01 02:19:23;;;;;;;;;;;8.50;99.90;;;;;;5175312;27;19952;-38
2023/05/01 02:21:50;;;;;;;;;;;8.50;99.90;;;;;;5174592;27;19914;-38
2023/05/01 02:24:17;;;;;;;;;;;8.40;99.90;;;;;;5175286;27;19907;-38
2023/05/01 02:26:46;;;;;;;;;;;8.40;99.90;;;;;;5175213;27;20262;-38
2023/05/01 02:29:12;;;;;;;;;;;8.40;99.90;;;;;;5174538;27;19907;-38
2023/05/01 02:31:37;;;;;;;;;;;8.30;99.90;;;;;;5175096;27;19919;-38
2023/05/01 02:34:03;;;;;;;;;;;8.30;99.90;;;;;;5174697;27;20479;-38
2023/05/01 02:36:28;;;;;;;;;;;8.30;99.90;;;;;;5173998;27;19963;-39
2023/05/01 02:38:54;;;;;;;;;;;8.30;99.90;;;;;;5175226;27;19993;-38
2023/05/01 02:41:20;;;;;;;;;;;8.20;99.90;;;;;;5175154;27;19910;-39
2023/05/01 02:43:48;;;;;;;;;;;8.20;99.90;;;;;;5174647;27;19914;-40
2023/05/01 02:46:15;;;;;;;;;;;8.20;99.90;;;;;;5175031;27;20376;-39
2023/05/01 02:48:41;;;;;;;;;;;8.10;99.90;;;;;;5174230;27;19911;-39
2023/05/01 02:51:07;;;;;;;;;;;8.20;99.90;;;;;;5176982;27;20002;-39
2023/05/01 02:53:33;;;;;;;;;;;8.20;99.90;;;;;;5179191;27;19907;-38
2023/05/01 02:55:58;;;;;;;;;;;8.10;99.90;;;;;;5178589;27;19951;-38
2023/05/01 02:58:24;;;;;;;;;;;8.10;99.90;;;;;;5178992;27;19918;-38
2023/05/01 03:00:49;;;;;;;;;;;8.10;99.90;;;;;;5179143;27;19975;-38
2023/05/01 03:03:15;;;;;;;;;;;8.10;99.90;;;;;;5178093;27;19934;-39
2023/05/01 03:05:40;;;;;;;;;;;8.00;99.90;;;;;;5179129;27;19922;-38
2023/05/01 03:08:06;;;;;;;;;;;8.00;99.90;;;;;;5178807;27;19911;-38
2023/05/01 03:10:32;;;;;;;;;;;8.00;99.90;;;;;;5178072;27;20424;-38
2023/05/01 03:12:57;;;;;;;;;;;8.00;99.90;;;;;;5178971;27;19907;-38
2023/05/01 03:15:23;;;;;;;;;;;7.90;99.90;;;;;;5178854;27;20393;-39
2023/05/01 03:17:48;;;;;;;;;;;7.90;99.90;;;;;;5177851;27;19911;-39
2023/05/01 03:20:14;;;;;;;;;;;7.80;99.90;;;;;;5178733;27;19907;-39
2023/05/01 03:22:40;;;;;;;;;;;7.80;99.90;;;;;;5178561;27;20361;-38
2023/05/01 03:25:06;;;;;;;;;;;7.80;99.90;;;;;;5178017;27;19921;-39
2023/05/01 03:27:31;;;;;;;;;;;7.80;99.90;;;;;;5178440;27;20467;-39
2023/05/01 03:29:57;;;;;;;;;;;7.80;99.90;;;;;;5178559;27;19907;-38
2023/05/01 03:32:22;;;;;;;;;;;7.80;99.90;;;;;;5177400;27;20346;-39
2023/05/01 03:34:48;;;;;;;;;;;7.80;99.90;;;;;;5178744;27;19914;-38
2023/05/01 03:37:14;;;;;;;;;;;7.80;99.90;;;;;;5178415;27;19931;-38
2023/05/01 03:39:41;;;;;;;;;;;7.80;99.90;;;;;;5176389;27;21279;-39
2023/05/01 03:42:06;;;;;;;;;;;7.70;99.90;;;;;;5178551;27;19942;-38
2023/05/01 03:44:32;;;;;;;;;;;7.80;99.90;;;;;;5177961;27;20429;-38
2023/05/01 03:46:57;;;;;;;;;;;7.70;99.90;;;;;;5177073;27;19965;-38
2023/05/01 03:49:23;;;;;;;;;;;7.70;99.90;;;;;;5178113;27;19941;-38
2023/05/01 03:51:48;;;;;;;;;;;7.70;99.90;;;;;;5177403;27;20371;-39
2023/05/01 03:54:14;;;;;;;;;;;7.70;99.90;;;;;;5178093;27;19907;-38
2023/05/01 03:56:40;;;;;;;;;;;7.70;99.90;;;;;;5177703;27;20373;-38
2023/05/01 03:59:06;;;;;;;;;;;7.70;99.90;;;;;;5177132;27;19946;-38
2023/05/01 04:01:32;;;;;;;;;;;7.70;99.90;;;;;;5177775;27;19962;-39
2023/05/01 04:03:58;;;;;;;;;;;7.70;99.90;;;;;;5177406;27;19907;-38
2023/05/01 04:06:24;;;;;;;;;;;7.70;99.90;;;;;;5176975;27;19925;-38
2023/05/01 04:08:49;;;;;;;;;;;7.70;99.90;;;;;;5177319;27;20360;-38
2023/05/01 04:11:15;;;;;;;;;;;7.70;99.90;;;;;;5177406;27;20285;-38
2023/05/01 04:13:40;;;;;;;;;;;7.70;99.90;;;;;;5177071;27;20304;-39
2023/05/01 04:16:06;;;;;;;;;;;7.70;99.90;;;;;;5177597;27;20039;-39
2023/05/01 04:18:31;;;;;;;;;;;7.70;99.90;;;;;;5177588;27;19910;-38
2023/05/01 04:20:57;;;;;;;;;;;7.70;99.90;;;;;;5176944;27;19906;-38
2023/05/01 04:23:22;;;;;;;;;;;7.70;99.90;;;;;;5177550;27;19910;-38
2023/05/01 04:25:47;;;;;;;;;;;7.70;99.90;;;;;;5177264;27;20342;-38
2023/05/01 04:28:13;;;;;;;;;;;7.60;99.90;;;;;;5176631;27;19911;-39
2023/05/01 04:30:38;;;;;;;;;;;7.60;99.90;;;;;;5174991;27;19997;-38
2023/05/01 04:33:10;;;;;;;;;;;7.60;99.90;;;;;;5177331;27;20440;-38
2023/05/01 04:35:39;;;;;;;;;;;7.60;99.90;;;;;;5176741;27;19910;-39
2023/05/01 04:38:05;;;;;;;;;;;7.60;99.90;;;;;;5176893;27;20270;-38
2023/05/01 04:40:30;;;;;;;;;;;7.70;99.90;;;;;;5176938;27;19954;-38
2023/05/01 04:42:56;;;;;;;;;;;7.70;99.90;;;;;;5171807;27;20001;-39
2023/05/01 04:45:21;;;;;;;;;;;7.70;99.90;;;;;;5165138;27;19968;-38
2023/05/01 04:47:47;;;;;;;;;;;7.80;99.90;;;;;;5156204;27;20388;-38
2023/05/01 04:50:13;;;;;;;;;;;7.80;99.90;;;;;;5155366;27;19907;-39
2023/05/01 04:52:38;;;;;;;;;;;7.80;99.90;;;;;;5155902;27;19945;-40
2023/05/01 04:55:04;;;;;;;;;;;7.80;99.90;;;;;;5155231;27;19935;-38
2023/05/01 04:57:29;;;;;;;;;;;7.90;99.90;;;;;;5155898;27;19914;-38
2023/05/01 04:59:55;;;;;;;;;;;8.00;99.90;;;;;;5155802;27;19915;-39
2023/05/01 05:02:20;;;;;;;;;;;8.00;99.90;;;;;;5155000;27;20033;-38
2023/05/01 05:04:46;;;;;;;;;;;8.10;99.90;;;;;;5155955;27;19995;-38
2023/05/01 05:07:12;;;;;;;;;;;8.10;99.90;;;;;;5155697;27;19921;-38
2023/05/01 05:09:37;;;;;;;;;;;8.20;99.90;;;;;;5164016;27;19929;-39
2023/05/01 05:12:03;;;;;;;;;;;8.30;99.90;;;;;;5175804;27;19917;-38
2023/05/01 05:14:29;;;;;;;;;;;8.30;99.90;;;;;;5174800;27;20018;-38
2023/05/01 05:16:55;;;;;;;;;;;8.40;99.90;;;;;;5175000;27;20384;-39
2023/05/01 05:19:20;;;;;;;;;;;8.40;99.90;;;;;;5175760;27;19914;-38
2023/05/01 05:21:46;;;;;;;;;;;8.50;99.90;;;;;;5175636;27;19907;-38
2023/05/01 05:24:12;;;;;;;;;;;8.50;99.90;;;;;;5174932;27;19911;-40
2023/05/01 05:26:37;;;;;;;;;;;8.50;99.90;;;;;;5175375;27;19921;-38
2023/05/01 05:29:03;;;;;;;;;;;8.50;99.90;;;;;;5175578;27;19978;-39
2023/05/01 05:31:28;;;;;;;;;;;8.50;99.90;;;;;;5174587;27;20281;-39
2023/05/01 05:33:54;;;;;;;;;;;8.60;99.90;;;;;;5175416;27;19917;-39
2023/05/01 05:36:19;;;;;;;;;;;8.60;99.90;;;;;;5175498;27;19918;-40
2023/05/01 05:38:45;;;;;;;;;;;8.70;99.90;;;;;;5175011;27;20337;-39
2023/05/01 05:41:11;;;;;;;;;;;8.70;99.90;;;;;;5175045;27;19907;-39
2023/05/01 05:43:36;;;;;;;;;;;8.90;99.90;;;;;;5175267;27;19914;-40
2023/05/01 05:46:02;;;;;;;;;;;8.90;99.90;;;;;;5174496;27;19915;-39
2023/05/01 05:48:27;;;;;;;;;;;9.00;99.90;;;;;;5175255;27;20346;-39
2023/05/01 05:50:53;;;;;;;;;;;9.10;99.90;;;;;;5174764;27;20005;-39
2023/05/01 05:53:19;;;;;;;;;;;9.20;99.90;;;;;;5173798;27;20001;-39
2023/05/01 05:55:47;;;;;;;;;;;9.30;99.90;;;;;;5173929;27;20362;-38
2023/05/01 05:58:18;;;;;;;;;;;9.30;99.90;;;;;;5173949;27;19937;-40
2023/05/01 06:00:47;;;;;;;;;;;9.40;99.90;;;;;;5174036;27;19955;-39
2023/05/01 06:03:13;;;;;;;;;;;9.50;99.90;;;;;;5174021;27;19974;-39
2023/05/01 06:05:39;;;;;;;;;;;9.60;99.90;;;;;;5173291;27;19919;-39
2023/05/01 06:08:04;;;;;;;;;;;9.60;99.90;;;;;;5168599;27;19914;-41
2023/05/01 06:10:30;;;;;;;;;;;9.70;99.90;;;;;;5173943;27;19907;-39
2023/05/01 06:12:55;;;;;;;;;;;9.80;99.90;;;;;;5173019;27;19906;-39
2023/05/01 06:15:21;;;;;;;;;;;9.80;99.90;;;;;;5173896;27;19915;-39
2023/05/01 06:17:46;;;;;;;;;;;9.90;99.90;;;;;;5173903;27;19942;-39
2023/05/01 06:20:13;;;;;;;;;;;9.90;99.90;;;;;;5172637;27;19910;-39
2023/05/01 06:22:38;;;;;;;;;;;10.00;99.90;;;;;;5172262;27;20010;-39
2023/05/01 06:25:05;;;;;;;;;;;10.00;99.90;;;;;;5171603;27;20009;-40
2023/05/01 06:27:31;;;;;;;;;;;10.00;99.90;;;;;;5172967;27;19907;-39
2023/05/01 06:29:56;;;;;;;;;;;10.10;99.90;;;;;;5173389;27;19979;-39
2023/05/01 06:32:22;;;;;;;;;;;10.20;99.90;;;;;;5167813;27;19971;-40
2023/05/01 06:34:47;;;;;;;;;;;10.20;99.90;;;;;;5172878;27;19907;-39
2023/05/01 06:37:13;;;;;;;;;;;10.30;99.90;;;;;;5174173;27;19914;-39
2023/05/01 06:39:38;;;;;;;;;;;10.40;99.90;;;;;;5175026;27;19907;-39
2023/05/01 06:42:04;;;;;;;;;;;10.50;99.90;;;;;;5173860;27;20036;-40
2023/05/01 06:44:29;;;;;;;;;;;10.60;99.90;;;;;;5174960;27;19907;-39
2023/05/01 06:46:55;;;;;;;;;;;10.70;99.90;;;;;;5174505;27;19918;-39
2023/05/01 06:49:21;;;;;;;;;;;10.80;99.90;;;;;;5174158;27;19907;-38
2023/05/01 06:51:47;;;;;;;;;;;10.90;99.90;;;;;;5174835;27;19930;-39
2023/05/01 06:54:12;;;;;;;;;;;10.90;99.90;;;;;;5174712;27;19914;-40
2023/05/01 06:56:38;;;;;;;;;;;11.00;99.90;;;;;;5174051;27;19915;-39
2023/05/01 06:59:04;;;;;;;;;;;11.10;99.90;;;;;;5175009;27;19959;-39
2023/05/01 07:01:30;;;;;;;;;;;11.10;99.90;;;;;;5175142;27;19906;-39
2023/05/01 07:03:55;;;;;;;;;;;11.20;99.90;;;;;;5170358;27;19917;-39
2023/05/01 07:06:21;;;;;;;;;;;11.40;99.90;;;;;;5165049;27;20281;-39
2023/05/01 07:08:46;;;;;;;;;;;11.50;99.90;;;;;;5174115;27;19929;-39
2023/05/01 07:11:12;;;;;;;;;;;11.60;99.90;;;;;;5154073;27;19915;-39
2023/05/01 07:13:37;;;;;;;;;;;11.80;99.90;;;;;;5153936;27;19911;-39
2023/05/01 07:16:03;;;;;;;;;;;11.90;99.90;;;;;;5159495;27;19980;-39
2023/05/01 07:18:28;;;;;;;;;;;11.90;99.90;;;;;;5160437;27;19911;-39
2023/05/01 07:20:54;;;;;;;;;;;12.00;99.90;;;;;;5152774;27;20369;-39
2023/05/01 07:23:21;;;;;;;;;;;12.10;99.90;;;;;;5172403;27;19983;-39
2023/05/01 07:25:47;;;;;;;;;;;12.20;99.90;;;;;;5173196;27;20392;-39
2023/05/01 07:28:12;;;;;;;;;;;12.20;99.90;;;;;;5161791;27;19972;-39
2023/05/01 07:30:38;;;;;;;;;;;12.30;99.90;;;;;;5173396;27;20281;-39
2023/05/01 07:33:05;;;;;;;;;;;12.30;99.90;;;;;;5173961;27;20289;-39
2023/05/01 07:35:31;;;;;;;;;;;12.40;99.90;;;;;;5174182;27;19907;-39
2023/05/01 07:37:57;;;;;;;;;;;12.50;99.90;;;;;;5164023;27;20369;-39
2023/05/01 07:40:22;;;;;;;;;;;12.50;99.90;;;;;;5164723;27;20055;-40
2023/05/01 07:42:48;;;;;;;;;;;12.60;99.90;;;;;;5169115;27;20242;-39
2023/05/01 07:45:13;;;;;;;;;;;12.50;99.90;;;;;;5156253;27;19907;-40
2023/05/01 07:47:39;;;;;;;;;;;12.60;99.90;;;;;;5177240;27;19910;-40
2023/05/01 07:50:08;;;;;;;;;;;12.60;99.90;;;;;;5168367;27;19915;-39
2023/05/01 07:52:33;;;;;;;;;;;12.70;99.90;;;;;;5171828;27;19910;-39
2023/05/01 07:54:59;;;;;;;;;;;12.80;99.90;;;;;;5176621;27;19907;-39
2023/05/01 07:57:24;;;;;;;;;;;12.80;99.90;;;;;;5176519;27;19911;-38
2023/05/01 07:59:54;;;;;;;;;;;12.90;99.90;;;;;;5176626;27;19907;-39
2023/05/01 08:02:19;;;;;;;;;;;13.00;99.90;;;;;;5177918;27;19915;-38
2023/05/01 08:04:46;;;;;;;;;;;13.10;99.90;;;;;;5177965;27;19911;-39
2023/05/01 08:07:12;;;;;;;;;;;13.20;99.90;;;;;;5165104;27;20018;-39
2023/05/01 08:09:38;;;;;;;;;;;13.30;99.90;;;;;;5173398;27;19958;-39
2023/05/01 08:12:03;;;;;;;;;;;13.40;99.90;;;;;;5176205;27;19911;-39
2023/05/01 08:14:29;;;;;;;;;;;13.40;99.90;;;;;;5177429;27;19917;-39
2023/05/01 08:16:55;;;;;;;;;;;13.50;99.90;;;;;;5168383;27;20288;-40
2023/05/01 08:19:20;;;;;;;;;;;13.60;99.90;;;;;;5176067;27;19997;-39
2023/05/01 08:21:46;;;;;;;;;;;13.60;99.90;;;;;;5173934;27;19910;-39
2023/05/01 08:24:11;;;;;;;;;;;13.70;99.90;;;;;;5176287;27;19910;-39
2023/05/01 08:26:37;;;;;;;;;;;13.70;99.90;;;;;;5162560;27;20051;-39
2023/05/01 08:29:02;;;;;;;;;;;13.70;99.90;;;;;;5177903;27;19907;-40
2023/05/01 08:31:28;;;;;;;;;;;13.70;99.90;;;;;;5170427;27;19918;-39
2023/05/01 08:33:53;;;;;;;;;;;13.70;99.90;;;;;;5177359;27;20435;-39
2023/05/01 08:36:19;;;;;;;;;;;13.80;99.90;;;;;;5177872;27;19917;-40
2023/05/01 08:38:44;;;;;;;;;;;13.80;99.90;;;;;;5177490;27;19907;-42
2023/05/01 08:41:15;;;;;;;;;;;13.80;99.90;;;;;;5176921;27;20369;-40
2023/05/01 08:43:40;;;;;;;;;;;13.90;99.90;;;;;;5177689;27;19907;-39
2023/05/01 08:46:06;;;;;;;;;;;14.00;99.90;;;;;;5177380;27;20365;-39
2023/05/01 08:48:34;;;;;;;;;;;14.10;99.90;;;;;;5176948;27;19914;-39
2023/05/01 08:51:00;;;;;;;;;;;14.10;99.90;;;;;;5164985;27;19917;-39
2023/05/01 08:53:27;;;;;;;;;;;14.20;99.90;;;;;;5158606;27;19954;-39
2023/05/01 08:55:54;;;;;;;;;;;14.30;99.90;;;;;;5158385;27;20370;-39
2023/05/01 08:58:20;;;;;;;;;;;14.30;99.90;;;;;;5173123;27;19914;-39
2023/05/01 09:00:46;;;;;;;;;;;14.30;99.90;;;;;;5158806;27;19911;-40
2023/05/01 09:03:14;;;;;;;;;;;14.40;99.90;;;;;;5176787;27;19906;-39
2023/05/01 09:05:39;;;;;;;;;;;14.50;99.90;;;;;;5177405;27;20058;-39
2023/05/01 09:08:05;;;;;;;;;;;14.50;99.90;;;;;;5177533;27;19967;-39
2023/05/01 09:10:31;;;;;;;;;;;14.50;99.90;;;;;;5176452;27;19913;-40
2023/05/01 09:12:59;;;;;;;;;;;14.60;99.90;;;;;;5176838;27;20210;-41
2023/05/01 09:15:25;;;;;;;;;;;14.60;99.90;;;;;;5176416;27;20006;-39
2023/05/01 09:17:52;;;;;;;;;;;14.70;99.90;;;;;;5172588;27;19914;-40
2023/05/01 09:20:18;;;;;;;;;;;14.70;99.90;;;;;;5161938;27;19972;-41
2023/05/01 09:22:44;;;;;;;;;;;14.70;99.90;;;;;;5174410;27;20345;-40
2023/05/01 09:25:09;;;;;;;;;;;14.80;99.90;;;;;;5176685;27;20009;-39
2023/05/01 09:27:36;;;;;;;;;;;14.90;99.90;;;;;;5176778;27;19911;-39
2023/05/01 09:30:02;;;;;;;;;;;15.00;99.90;;;;;;5176043;27;20344;-39
2023/05/01 09:32:28;;;;;;;;;;;15.10;99.90;;;;;;5174024;27;20396;-41
2023/05/01 09:34:54;;;;;;;;;;;15.20;99.90;;;;;;5176642;27;20370;-42
2023/05/01 09:37:28;;;;;;;;;;;15.30;99.20;;;;;;5175995;27;19918;-41
2023/05/01 09:40:00;;;;;;;;;;;15.40;99.90;;;;;;5176243;27;19914;-40
2023/05/01 09:42:25;;;;;;;;;;;15.40;99.90;;;;;;5176662;27;19911;-40
2023/05/01 09:44:51;;;;;;;;;;;15.60;95.90;;;;;;5175926;27;19907;-39
2023/05/01 09:47:21;;;;;;;;;;;15.60;98.90;;;;;;5176355;27;19915;-39
2023/05/01 09:49:48;;;;;;;;;;;15.70;98.50;;;;;;5176539;27;19914;-39
2023/05/01 09:52:14;;;;;;;;;;;15.80;96.90;;;;;;5175234;27;19907;-39
2023/05/01 09:54:40;;;;;;;;;;;15.90;99.90;;;;;;5176337;27;19949;-40
2023/05/01 09:57:05;;;;;;;;;;;16.00;99.80;;;;;;5167211;27;19958;-39
2023/05/01 09:59:33;;;;;;;;;;;16.20;99.20;;;;;;5169573;27;19964;-41
2023/05/01 10:01:59;;;;;;;;;;;16.30;99.70;;;;;;5175380;27;19957;-41
2023/05/01 10:04:30;;;;;;;;;;;16.50;99.30;;;;;;5175989;27;19957;-40
2023/05/01 10:06:56;;;;;;;;;;;16.50;95.30;;;;;;5176059;27;19916;-39
2023/05/01 10:09:28;;;;;;;;;;;16.60;94.10;;;;;;5175495;27;19913;-39
2023/05/01 10:11:56;;;;;;;;;;;16.70;96.10;;;;;;5175108;27;19918;-39
2023/05/01 10:14:22;;;;;;;;;;;16.80;99.90;;;;;;5175618;27;20355;-39
2023/05/01 10:16:48;;;;;;;;;;;17.00;98.80;;;;;;5176211;27;19962;-39
2023/05/01 10:19:15;;;;;;;;;;;17.10;95.90;;;;;;5175405;27;20379;-41
2023/05/01 10:21:41;;;;;;;;;;;17.30;94.40;;;;;;5174550;27;20533;-40
2023/05/01 10:24:08;;;;;;;;;;;17.50;93.90;;;;;;5167163;27;20042;-39
2023/05/01 10:26:35;;;;;;;;;;;17.50;92.90;;;;;;5154258;27;20269;-40
2023/05/01 10:29:01;;;;;;;;;;;17.60;93.10;;;;;;5154907;27;20296;-39
2023/05/01 10:31:27;;;;;;;;;;;17.70;92.90;;;;;;5168615;27;20317;-39
2023/05/01 10:33:53;;;;;;;;;;;17.80;93.80;;;;;;5175422;27;20010;-39
2023/05/01 10:36:32;;;;;;;;;;;17.80;91.90;;;;;;5173795;27;20274;-40
2023/05/01 10:38:57;;;;;;;;;;;17.80;81.20;;;;;;5163780;27;19911;-40
2023/05/01 10:41:42;;;;;;;;;;;17.80;86.90;;;;;;5173582;27;19918;-41
2023/05/01 10:44:20;;;;;;;;;;;17.80;87.30;;;;;;5153864;27;20010;-40
2023/05/01 10:46:46;;;;;;;;;;;17.80;90.40;;;;;;5153776;27;20338;-39
2023/05/01 10:49:11;;;;;;;;;;;18.00;93.70;;;;;;5162024;27;19948;-38
2023/05/01 10:51:57;;;;;;;;;;;18.00;94.20;;;;;;5173992;27;20280;-39
2023/05/01 10:54:26;;;;;;;;;;;18.10;91.90;;;;;;5174213;27;19914;-40
2023/05/01 10:56:53;;;;;;;;;;;18.20;90.30;;;;;;5175187;27;19907;-40
2023/05/01 10:59:19;;;;;;;;;;;18.30;89.60;;;;;;5174984;27;19951;-39
2023/05/01 11:01:46;;;;;;;;;;;18.30;84.90;;;;;;5173775;27;19911;-40
2023/05/01 11:04:18;;;;;;;;;;;18.40;71.60;;;;;;5174805;27;19914;-40
2023/05/01 11:07:04;;;;;;;;;;;18.50;72.20;;;;;;5175586;27;19962;-40
2023/05/01 11:09:38;;;;;;;;;;;18.60;77.40;;;;;;5174843;27;19914;-38
2023/05/01 11:12:05;;;;;;;;;;;18.80;76.50;;;;;;5175577;27;19910;-39
2023/05/01 11:14:49;;;;;;;;;;;18.90;78.80;;;;;;5177913;27;20378;-39
2023/05/01 11:17:34;;;;;;;;;;;19.00;80.60;;;;;;5157280;27;19910;-38
2023/05/01 11:20:00;;;;;;;;;;;19.20;73.80;;;;;;5155768;27;19925;-39
2023/05/01 11:22:25;;;;;;;;;;;19.20;66.90;;;;;;5173151;27;19997;-39
2023/05/01 11:24:51;;;;;;;;;;;19.20;73.30;;;;;;5176988;27;19960;-39
2023/05/01 11:27:17;;;;;;;;;;;19.30;79.80;;;;;;5176693;27;19915;-39
2023/05/01 11:29:43;;;;;;;;;;;19.30;75.10;;;;;;5176032;27;19911;-39
2023/05/01 11:32:09;;;;;;;;;;;19.40;72.20;;;;;;5176117;27;19923;-39
2023/05/01 11:34:37;;;;;;;;;;;19.50;65.10;;;;;;5177282;27;19917;-39
2023/05/01 11:37:03;;;;;;;;;;;19.60;67.80;;;;;;5164952;27;19979;-39
2023/05/01 11:39:29;;;;;;;;;;;19.60;57.50;;;;;;5165999;27;20350;-39
2023/05/01 11:42:07;;;;;;;;;;;19.50;64.90;;;;;;5158173;27;19911;-39
2023/05/01 11:44:33;;;;;;;;;;;19.40;67.80;;;;;;5172108;27;19919;-39
2023/05/01 11:47:00;;;;;;;;;;;19.40;72.40;;;;;;5163240;27;20352;-39
2023/05/01 11:49:28;;;;;;;;;;;19.40;66.00;;;;;;5178450;27;19915;-39
2023/05/01 11:51:57;;;;;;;;;;;19.50;70.30;;;;;;5166321;27;19910;-39
2023/05/01 11:54:22;;;;;;;;;;;19.70;72.40;;;;;;5178070;27;19913;-38
2023/05/01 11:56:56;;;;;;;;;;;20.00;71.60;;;;;;5178098;27;19907;-40
2023/05/01 11:59:21;;;;;;;;;;;20.30;72.00;;;;;;5174796;27;20337;-39
2023/05/01 12:01:47;;;;;;;;;;;20.60;64.70;;;;;;5163358;27;19915;-38
2023/05/01 12:04:21;;;;;;;;;;;20.80;61.60;;;;;;5157018;27;19911;-39
2023/05/01 12:06:47;;;;;;;;;;;20.80;64.40;;;;;;5157453;27;19922;-39
2023/05/01 12:09:23;;;;;;;;;;;20.80;60.20;;;;;;5168134;27;19911;-39
2023/05/01 12:11:50;;;;;;;;;;;20.90;64.40;;;;;;5177710;27;19915;-39
2023/05/01 12:14:17;;;;;;;;;;;20.90;65.10;;;;;;5178422;27;19914;-39
2023/05/01 12:16:43;;;;;;;;;;;20.80;64.00;;;;;;5178233;27;19961;-38
2023/05/01 12:19:11;;;;;;;;;;;20.80;65.10;;;;;;5177920;27;20243;-39
2023/05/01 12:21:36;;;;;;;;;;;20.80;64.70;;;;;;5178171;27;19907;-39
2023/05/01 12:24:14;;;;;;;;;;;20.90;69.60;;;;;;5177171;27;20326;-39
2023/05/01 12:26:40;;;;;;;;;;;21.10;65.40;;;;;;5170423;27;19933;-38
2023/05/01 12:29:07;;;;;;;;;;;21.10;67.30;;;;;;5163166;27;19911;-39
2023/05/01 12:31:33;;;;;;;;;;;21.20;64.30;;;;;;5164038;27;19930;-39
2023/05/01 12:34:00;;;;;;;;;;;21.10;63.10;;;;;;5171799;27;19907;-39
2023/05/01 12:36:27;;;;;;;;;;;21.00;63.00;;;;;;5171143;27;19911;-39
2023/05/01 12:39:13;;;;;;;;;;;20.90;67.70;;;;;;5177370;27;19907;-38
2023/05/01 12:41:43;;;;;;;;;;;21.00;63.50;;;;;;5177017;27;19914;-38
2023/05/01 12:44:21;;;;;;;;;;;21.00;67.70;;;;;;5177300;27;19914;-39
2023/05/01 12:47:00;;;;;;;;;;;21.10;60.70;;;;;;5169941;27;19919;-39
2023/05/01 12:49:26;;;;;;;;;;;21.20;64.60;;;;;;5155803;27;19919;-39
2023/05/01 12:51:53;;;;;;;;;;;21.30;68.80;;;;;;5160253;27;19927;-39
2023/05/01 12:54:19;;;;;;;;;;;21.40;61.60;;;;;;5169606;27;19906;-39
2023/05/01 12:56:45;;;;;;;;;;;21.40;62.60;;;;;;5176461;27;19918;-40
2023/05/01 12:59:20;;;;;;;;;;;21.40;64.50;;;;;;5176363;27;19962;-39
2023/05/01 13:01:46;;;;;;;;;;;21.60;65.60;;;;;;5176881;27;20349;-38
2023/05/01 13:04:11;;;;;;;;;;;21.80;66.10;;;;;;5177362;27;19914;-39
2023/05/01 13:06:37;;;;;;;;;;;22.00;62.30;;;;;;5158135;27;19923;-39
2023/05/01 13:09:11;;;;;;;;;;;22.00;61.80;;;;;;5155975;27;19907;-39
2023/05/01 13:11:37;;;;;;;;;;;22.00;60.70;;;;;;5156372;27;19907;-39
2023/05/01 13:14:07;;;;;;;;;;;21.90;61.70;;;;;;5156434;27;19907;-39
2023/05/01 13:16:32;;;;;;;;;;;21.80;55.90;;;;;;5163337;27;19911;-41
2023/05/01 13:18:58;;;;;;;;;;;21.60;50.20;;;;;;5164961;27;20262;-40
2023/05/01 13:21:23;;;;;;;;;;;21.40;59.20;;;;;;5155766;27;19907;-40
2023/05/01 13:23:53;;;;;;;;;;;21.50;62.20;;;;;;5155562;27;19994;-40
2023/05/01 13:26:23;;;;;;;;;;;21.70;59.60;;;;;;5155362;27;19923;-40
2023/05/01 13:28:49;;;;;;;;;;;21.80;60.10;;;;;;5157130;27;19915;-40
2023/05/01 13:31:14;;;;;;;;;;;22.10;62.60;;;;;;5155106;27;19911;-40
2023/05/01 13:33:41;;;;;;;;;;;22.40;59.80;;;;;;5155311;27;20365;-39
2023/05/01 13:36:11;;;;;;;;;;;22.60;58.10;;;;;;5153622;27;19959;-40
2023/05/01 13:38:42;;;;;;;;;;;22.90;59.30;;;;;;5172717;27;19933;-39
2023/05/01 13:41:12;;;;;;;;;;;23.10;54.20;;;;;;5162730;27;19942;-40
2023/05/01 13:43:38;;;;;;;;;;;23.00;58.00;;;;;;5161913;27;19911;-39
2023/05/01 13:46:03;;;;;;;;;;;22.90;54.80;;;;;;5159307;27;19956;-40
2023/05/01 13:48:29;;;;;;;;;;;22.60;55.70;;;;;;5172161;27;19910;-42
2023/05/01 13:50:54;;;;;;;;;;;22.30;56.40;;;;;;5175821;27;20388;-40
2023/05/01 13:53:21;;;;;;;;;;;22.10;58.40;;;;;;5176430;27;19962;-39
2023/05/01 13:55:46;;;;;;;;;;;21.90;59.70;;;;;;5176651;27;19907;-38
2023/05/01 13:58:12;;;;;;;;;;;21.80;59.30;;;;;;5174606;27;20341;-39
2023/05/01 14:00:38;;;;;;;;;;;21.70;59.90;;;;;;5173778;27;19950;-39
2023/05/01 14:03:04;;;;;;;;;;;21.50;59.40;;;;;;5158826;27;19911;-40
2023/05/01 14:05:29;;;;;;;;;;;21.40;59.00;;;;;;5171158;27;19918;-39
2023/05/01 14:07:56;;;;;;;;;;;21.50;59.50;;;;;;5172545;27;19914;-40
2023/05/01 14:10:22;;;;;;;;;;;22.00;60.60;;;;;;5165754;27;19934;-40
2023/05/01 14:12:47;;;;;;;;;;;22.30;56.30;;;;;;5166815;27;20004;-40
2023/05/01 14:15:13;;;;;;;;;;;22.70;60.30;;;;;;5165846;27;20365;-40
2023/05/01 14:17:39;;;;;;;;;;;23.30;62.20;;;;;;5154647;27;19975;-40
2023/05/01 14:20:05;;;;;;;;;;;24.00;59.90;;;;;;5153911;27;20050;-40
2023/05/01 14:22:44;;;;;;;;;;;24.60;53.20;;;;;;5164750;27;19911;-40